Time;durP1;ratioP1;P1;durP2;ratioP2;P2;SDS_P1;SDS_P2;PMS_P1;PMS_P2;Temp;Humidity;BMP_temperature;BMP_pressure;BME280_temperature;BME280_humidity;BME280_pressure;Samples;Min_cycle;Max_cycle;Signal;HPM_P1;HPM_P2
2024/04/17 00:20:15;;;;;;;23.83;14.43;;;2.70;99.90;;;;;;5997528;23;20376;-82
2024/04/17 01:31:05;;;;;;;20.70;14.63;;;3.00;99.90;;;;;;6072194;23;20381;-83
2024/04/17 01:56:40;;;;;;;21.60;13.67;;;3.30;99.90;;;;;;5933350;23;20176;-84
2024/04/17 02:37:06;;;;;;;19.17;13.40;;;2.60;99.90;;;;;;6104761;23;20470;-84
2024/04/17 03:02:11;;;;;;;21.97;13.90;;;2.30;99.90;;;;;;5899337;23;20570;-84
2024/04/17 03:32:27;;;;;;;22.03;15.07;;;1.90;99.90;;;;;;5691260;24;20285;-83
2024/04/17 03:57:40;;;;;;;22.03;15.93;;;1.50;99.90;;;;;;5805304;23;20758;-82
2024/04/17 04:28:43;;;;;;;25.37;16.47;;;2.10;99.90;;;;;;6063162;23;20505;-85
2024/04/17 04:53:30;;;;;;;22.93;16.10;;;3.40;99.90;;;;;;5869925;23;20620;-85
2024/04/17 05:13:53;;;;;;;25.57;17.43;;;4.30;99.90;;;;;;5745749;24;20789;-88
2024/04/17 05:39:35;;;;;;;17.83;14.00;;;5.00;99.90;;;;;;5739323;24;20299;-86
2024/04/17 06:05:10;;;;;;;18.70;12.50;;;6.30;99.90;;;;;;5828090;23;20705;-85
2024/04/17 06:45:41;;;;;;;10.80;9.30;;;8.10;99.90;;;;;;5830059;23;20415;-84
2024/04/17 07:10:50;;;;;;;8.60;7.70;;;8.80;97.10;;;;;;5752087;23;20214;-83
2024/04/17 07:31:20;;;;;;;8.37;7.57;;;9.20;96.20;;;;;;5786545;24;20545;-83
2024/04/17 08:27:03;;;;;;;9.97;8.20;;;11.20;86.90;;;;;;5556276;24;20211;-85
2024/04/17 09:38:13;;;;;;;9.00;8.20;;;11.40;85.00;;;;;;5948261;23;20502;-85
2024/04/17 10:08:29;;;;;;;9.23;8.37;;;11.20;83.40;;;;;;6069766;23;21507;-84
2024/04/17 10:24:53;;;;;;;7.70;6.87;;;10.90;86.10;;;;;;5927755;23;20549;-84
2024/04/17 10:45:15;;;;;;;8.13;7.37;;;9.50;93.30;;;;;;5729652;24;20196;-84
2024/04/17 11:10:37;;;;;;;7.63;6.93;;;9.50;99.90;;;;;;5811206;24;20186;-86
2024/04/17 11:41:02;;;;;;;8.37;7.27;;;10.00;95.30;;;;;;5949282;23;20179;-84
2024/04/17 12:11:13;;;;;;;10.27;9.37;;;10.50;99.90;;;;;;5774961;24;20218;-83
2024/04/17 12:36:13;;;;;;;9.03;8.17;;;9.00;99.90;;;;;;5750314;24;20531;-83
2024/04/17 13:02:01;;;;;;;4.00;3.70;;;8.30;99.90;;;;;;5893017;23;20693;-82
2024/04/17 13:27:37;;;;;;;4.63;4.10;;;7.50;99.90;;;;;;5881421;23;20361;-83
2024/04/17 13:58:09;;;;;;;4.17;3.87;;;7.70;99.90;;;;;;5927269;23;21134;-85
2024/04/17 14:02:29;;;;;;;5.00;4.50;;;7.40;99.90;;;;;;5838361;23;20597;-85
2024/04/17 14:23:27;;;;;;;3.50;3.20;;;7.50;99.90;;;;;;5791161;24;20180;-82
2024/04/17 14:53:52;;;;;;;4.50;4.10;;;6.40;99.90;;;;;;5916469;23;20180;-83
2024/04/17 15:19:17;;;;;;;5.13;4.63;;;6.70;99.90;;;;;;6110920;23;20201;-84
2024/04/17 15:49:25;;;;;;;6.43;5.50;;;6.60;99.90;;;;;;5997501;23;20155;-85
2024/04/17 16:15:03;;;;;;;5.93;5.33;;;6.80;99.90;;;;;;5963715;23;20237;-85
2024/04/17 17:27:47;;;;;;;6.00;5.50;;;6.80;99.90;;;;;;5919623;23;20643;-82
2024/04/17 17:48:07;;;;;;;6.57;5.40;;;6.90;99.90;;;;;;5667789;24;20379;-85
2024/04/17 18:14:04;;;;;;;7.20;5.27;;;6.90;99.90;;;;;;5733900;24;20299;-87
2024/04/17 18:44:19;;;;;;;6.93;5.60;;;6.90;99.90;;;;;;6050466;22;20221;-86
2024/04/17 18:54:01;;;;;;;7.10;5.30;;;6.80;99.90;;;;;;6180076;22;20624;-84
2024/04/17 18:58:19;;;;;;;5.60;5.10;;;6.70;99.90;;;;;;5885754;23;21387;-83
2024/04/17 19:13:56;;;;;;;7.37;5.83;;;6.30;99.90;;;;;;5937290;23;20209;-87
2024/04/17 19:34:35;;;;;;;5.73;5.20;;;6.20;99.90;;;;;;6039361;23;20269;-85
2024/04/17 19:38:54;;;;;;;4.87;4.40;;;6.10;99.90;;;;;;5896397;24;21063;-84
2024/04/17 19:59:33;;;;;;;6.50;5.00;;;5.70;99.90;;;;;;5602412;24;20532;-86
2024/04/17 20:15:05;;;;;;;6.63;5.70;;;5.50;99.90;;;;;;5603445;24;20192;-84
2024/04/17 20:45:22;;;;;;;8.77;5.37;;;5.30;99.90;;;;;;5818108;24;20220;-86
2024/04/17 21:10:13;;;;;;;8.53;5.07;;;5.10;99.90;;;;;;5663207;24;20604;-84
2024/04/17 21:30:54;;;;;;;4.83;4.33;;;5.00;99.90;;;;;;5603994;24;20329;-85
2024/04/17 21:56:29;;;;;;;5.73;4.80;;;4.60;99.90;;;;;;5573312;24;20820;-82
2024/04/17 22:32:04;;;;;;;6.03;5.07;;;4.40;99.90;;;;;;5773045;24;20308;-83
2024/04/17 23:02:11;;;;;;;8.10;6.60;;;4.40;99.90;;;;;;5756475;23;20162;-85
2024/04/17 23:22:44;;;;;;;7.30;6.17;;;4.10;99.90;;;;;;5871882;23;20829;-85
2024/04/17 23:43:02;;;;;;;10.53;6.23;;;3.70;99.90;;;;;;5972696;23;20157;-84
